Time;durP1;ratioP1;P1;durP2;ratioP2;P2;SDS_P1;SDS_P2;PMS_P1;PMS_P2;Temp;Humidity;BMP_temperature;BMP_pressure;BME280_temperature;BME280_humidity;BME280_pressure;Samples;Min_cycle;Max_cycle;Signal;HPM_P1;HPM_P2
2023/03/31 00:00:56;;;;;;;10.03;8.23;;;;;;;10.63;94.30;97567.00;4162329;28;20637;-82
2023/03/31 00:03:01;;;;;;;12.70;7.07;;;;;;;10.64;93.79;97563.47;4198533;28;21187;-82
2023/03/31 00:05:05;;;;;;;10.40;7.50;;;;;;;10.67;93.56;97558.00;4203792;28;21209;-82
2023/03/31 00:07:08;;;;;;;11.90;8.40;;;;;;;10.68;94.18;97557.09;4201416;28;20645;-82
2023/03/31 00:09:13;;;;;;;12.03;10.40;;;;;;;10.66;95.32;97551.97;4195921;28;20744;-82
2023/03/31 00:11:16;;;;;;;9.70;7.17;;;;;;;10.61;95.51;97542.84;4199364;28;20643;-82
2023/03/31 00:13:19;;;;;;;10.60;6.60;;;;;;;10.56;94.65;97534.56;4177518;28;20635;-82
2023/03/31 00:15:23;;;;;;;12.40;7.33;;;;;;;10.56;94.95;97537.16;4204223;28;20635;-82
2023/03/31 00:17:26;;;;;;;8.00;6.33;;;;;;;10.56;95.78;97530.16;4182665;28;20738;-82
2023/03/31 00:19:32;;;;;;;10.60;7.00;;;;;;;10.55;95.86;97532.88;4207191;28;20639;-82
2023/03/31 00:21:35;;;;;;;9.13;6.40;;;;;;;10.54;96.51;97533.81;4201294;28;21219;-82
2023/03/31 00:23:38;;;;;;;7.47;5.90;;;;;;;10.56;95.94;97526.72;4199740;28;21278;-82
2023/03/31 00:25:41;;;;;;;9.30;6.20;;;;;;;10.55;96.22;97523.28;4187906;28;20639;-82
2023/03/31 00:27:45;;;;;;;8.93;6.67;;;;;;;10.56;95.43;97522.34;4206120;28;20706;-82
2023/03/31 00:29:49;;;;;;;10.23;6.63;;;;;;;10.57;95.56;97510.13;4188459;28;20717;-82
2023/03/31 00:31:54;;;;;;;9.10;6.40;;;;;;;10.58;95.12;97511.78;4172174;28;20645;-82
2023/03/31 00:33:57;;;;;;;14.00;7.57;;;;;;;10.56;96.28;97503.28;4201401;28;20634;-82
2023/03/31 00:36:05;;;;;;;9.43;6.40;;;;;;;10.54;94.63;97492.09;4186662;28;20643;-82
2023/03/31 00:38:12;;;;;;;9.47;6.30;;;;;;;10.54;94.75;97497.31;4171837;28;20636;-82
2023/03/31 00:40:16;;;;;;;10.00;7.20;;;;;;;10.52;94.42;97496.63;4172920;28;21288;-82
2023/03/31 00:42:19;;;;;;;8.10;6.60;;;;;;;10.49;95.91;97486.44;4192772;28;20690;-82
2023/03/31 00:44:23;;;;;;;8.60;6.20;;;;;;;10.48;95.41;97487.41;4169575;28;20636;-82
2023/03/31 00:46:30;;;;;;;9.20;6.73;;;;;;;10.48;95.24;97482.19;4173726;28;20636;-82
2023/03/31 00:48:35;;;;;;;10.83;6.50;;;;;;;10.46;94.83;97481.47;4199595;28;20721;-82
2023/03/31 00:50:44;;;;;;;7.80;6.43;;;;;;;10.44;95.02;97476.34;4189741;28;20643;-82
2023/03/31 00:52:48;;;;;;;9.47;5.73;;;;;;;10.44;95.79;97478.16;4169315;28;20691;-82
2023/03/31 00:54:54;;;;;;;8.83;6.70;;;;;;;10.42;94.65;97474.84;4188594;28;20729;-82
2023/03/31 00:57:01;;;;;;;16.43;7.23;;;;;;;10.39;95.69;97462.84;4164139;28;21012;-82
2023/03/31 00:59:07;;;;;;;9.10;6.43;;;;;;;10.38;95.26;97465.59;4169961;28;21007;-82
2023/03/31 01:01:14;;;;;;;9.73;7.10;;;;;;;10.38;95.69;97457.78;4185885;28;20857;-82
2023/03/31 01:03:21;;;;;;;11.20;6.83;;;;;;;10.38;95.21;97462.97;4177205;28;21096;-82
2023/03/31 01:05:27;;;;;;;8.17;6.50;;;;;;;10.40;95.98;97455.88;4186350;28;20754;-82
2023/03/31 01:07:36;;;;;;;11.23;6.67;;;;;;;10.39;95.02;97455.03;4198466;28;20642;-82
2023/03/31 01:09:40;;;;;;;11.00;6.20;;;;;;;10.38;96.08;97452.56;4182813;28;21093;-82
2023/03/31 01:11:45;;;;;;;10.13;6.70;;;;;;;10.39;95.20;97454.22;4200659;28;22315;-82
2023/03/31 01:13:49;;;;;;;8.90;5.67;;;;;;;10.41;95.05;97447.09;4177545;28;20747;-82
2023/03/31 01:15:52;;;;;;;12.50;6.80;;;;;;;10.40;95.13;97442.81;4199012;28;20805;-82
2023/03/31 01:17:56;;;;;;;9.00;5.30;;;;;;;10.37;96.32;97443.91;4193750;28;20639;-82
2023/03/31 01:20:12;;;;;;;6.97;5.67;;;;;;;10.39;95.41;97446.41;4199009;28;21042;-82
2023/03/31 01:22:44;;;;;;;10.07;6.10;;;;;;;10.40;96.07;97441.06;4176996;28;20631;-82
2023/03/31 01:25:20;;;;;;;9.50;7.00;;;;;;;10.41;95.82;97445.31;4200951;28;20642;-82
2023/03/31 01:27:40;;;;;;;14.20;7.17;;;;;;;10.44;96.44;97437.25;4198913;28;20623;-82
2023/03/31 01:29:59;;;;;;;10.13;7.80;;;;;;;10.45;96.46;97436.31;4182339;28;21239;-82
2023/03/31 01:32:35;;;;;;;10.90;8.43;;;;;;;10.45;96.71;97430.28;4186856;28;20642;-82
2023/03/31 01:35:18;;;;;;;14.60;8.03;;;;;;;10.45;95.68;97438.09;4193740;28;20664;-82
2023/03/31 01:38:01;;;;;;;9.93;6.93;;;;;;;10.42;95.80;97426.13;4163676;28;20649;-82
2023/03/31 01:40:14;;;;;;;10.43;7.40;;;;;;;10.41;96.53;97428.84;4184832;28;20710;-82
2023/03/31 01:42:23;;;;;;;10.23;7.40;;;;;;;10.43;96.83;97421.75;4184110;28;20624;-82
2023/03/31 01:44:32;;;;;;;12.47;6.63;;;;;;;10.42;95.67;97412.28;4163072;28;21487;-82
2023/03/31 01:46:36;;;;;;;12.10;7.43;;;;;;;10.44;96.11;97405.97;4176620;28;20675;-82
2023/03/31 01:48:46;;;;;;;12.37;6.90;;;;;;;10.46;95.64;97398.03;4196830;28;21232;-82
2023/03/31 01:50:55;;;;;;;12.37;8.00;;;;;;;10.48;96.40;97391.75;4186673;28;21068;-82
2023/03/31 01:53:03;;;;;;;9.63;6.67;;;;;;;10.47;96.77;97389.28;4176624;28;20644;-82
2023/03/31 01:55:09;;;;;;;8.97;7.00;;;;;;;10.47;96.77;97394.50;4183899;28;20680;-82
2023/03/31 01:57:17;;;;;;;10.10;7.13;;;;;;;10.45;95.87;97389.41;4187532;28;20640;-82
2023/03/31 01:59:25;;;;;;;11.07;7.83;;;;;;;10.49;96.29;97395.19;4184187;28;21357;-82
2023/03/31 02:01:31;;;;;;;14.60;9.10;;;;;;;10.48;96.65;97393.56;4186286;28;20631;-82
2023/03/31 02:03:39;;;;;;;12.40;8.80;;;;;;;10.47;96.95;97394.50;4187797;28;20651;-82
2023/03/31 02:05:46;;;;;;;13.20;8.73;;;;;;;10.46;96.04;97393.69;4195858;28;20836;-82
2023/03/31 02:07:52;;;;;;;15.50;9.63;;;;;;;10.46;96.55;97395.44;4199698;28;20756;-82
2023/03/31 02:09:58;;;;;;;13.00;9.27;;;;;;;10.45;96.52;97399.81;4182457;28;20655;-82
2023/03/31 02:12:04;;;;;;;18.70;8.73;;;;;;;10.45;96.40;97406.81;4169145;28;20667;-82
2023/03/31 02:14:11;;;;;;;16.47;10.10;;;;;;;10.42;97.48;97401.84;4184645;28;20624;-82
2023/03/31 02:16:20;;;;;;;12.50;8.73;;;;;;;10.42;96.77;97407.06;4185304;28;20651;-82
2023/03/31 02:18:29;;;;;;;12.97;8.60;;;;;;;10.42;97.04;97399.25;4165990;28;20643;-82
2023/03/31 02:20:33;;;;;;;10.83;7.67;;;;;;;10.38;97.17;97392.59;4166522;28;20636;-82
2023/03/31 02:22:38;;;;;;;12.10;8.43;;;;;;;10.39;97.56;97397.69;4183581;28;20623;-82
2023/03/31 02:24:43;;;;;;;18.53;8.80;;;;;;;10.41;97.04;97395.78;4164773;28;20665;-82
2023/03/31 02:26:51;;;;;;;14.23;8.57;;;;;;;10.41;98.09;97394.97;4180870;28;20615;-82
2023/03/31 02:28:54;;;;;;;11.13;8.10;;;;;;;10.41;97.89;97385.38;4168933;28;20647;-82
2023/03/31 02:31:10;;;;;;;11.00;8.80;;;;;;;10.42;98.35;97371.41;4181442;28;21267;-82
2023/03/31 02:33:14;;;;;;;14.50;7.93;;;;;;;10.43;97.09;97378.28;4181981;28;20676;-82
2023/03/31 02:35:20;;;;;;;15.80;9.03;;;;;;;10.45;97.74;97370.34;4184012;28;20734;-82
2023/03/31 02:37:24;;;;;;;12.50;8.00;;;;;;;10.44;96.71;97368.66;4196144;28;20793;-82
2023/03/31 02:39:30;;;;;;;11.90;8.67;;;;;;;10.44;97.47;97363.44;4182931;28;21076;-82
2023/03/31 02:41:33;;;;;;;11.73;8.30;;;;;;;10.41;97.00;97364.50;4171202;28;20633;-82
2023/03/31 02:43:36;;;;;;;13.70;7.77;;;;;;;10.41;97.45;97358.47;4175151;28;20636;-82
2023/03/31 02:45:43;;;;;;;10.33;7.47;;;;;;;10.42;97.03;97354.94;4202752;28;20638;-82
2023/03/31 02:47:47;;;;;;;9.33;6.40;;;;;;;10.47;98.37;97342.34;4196635;28;20713;-82
2023/03/31 02:49:53;;;;;;;7.33;5.63;;;;;;;10.45;97.17;97339.88;4168455;28;20634;-82
2023/03/31 02:52:15;;;;;;;4.37;2.70;;;;;;;10.54;96.43;97340.91;4203158;28;20690;-82
2023/03/31 02:54:40;;;;;;;6.80;2.27;;;;;;;10.74;94.41;97343.56;4171586;28;20675;-82
2023/03/31 02:56:55;;;;;;;5.20;2.07;;;;;;;10.87;92.80;97342.47;4171475;28;21102;-82
2023/03/31 02:59:07;;;;;;;7.77;2.60;;;;;;;11.01;94.38;97336.13;4186140;28;20666;-82
2023/03/31 03:01:18;;;;;;;5.30;2.20;;;;;;;11.11;94.66;97327.41;4188879;28;20673;-82
2023/03/31 03:03:32;;;;;;;4.37;2.47;;;;;;;11.18;93.36;97333.75;4185212;28;20675;-82
2023/03/31 03:05:44;;;;;;;4.70;1.87;;;;;;;11.26;95.30;97317.47;4181064;28;20666;-82
2023/03/31 03:08:17;;;;;;;5.03;2.10;;;;;;;11.32;95.10;97310.78;4202449;28;21047;-82
2023/03/31 03:10:28;;;;;;;7.00;2.53;;;;;;;11.37;94.55;97297.34;4174608;28;20635;-82
2023/03/31 03:12:36;;;;;;;3.40;2.47;;;;;;;11.39;94.06;97288.41;4166994;28;20696;-82
2023/03/31 03:14:46;;;;;;;9.90;4.00;;;;;;;11.37;94.34;97277.28;4168214;28;21040;-82
2023/03/31 03:16:53;;;;;;;6.20;2.57;;;;;;;11.44;94.35;97277.56;4193389;28;20638;-82
2023/03/31 03:18:59;;;;;;;6.40;2.97;;;;;;;11.48;94.87;97265.97;4183668;28;20742;-82
2023/03/31 03:21:03;;;;;;;6.03;2.83;;;;;;;11.50;95.90;97253.59;4195800;28;20638;-82
2023/03/31 03:23:06;;;;;;;6.70;2.70;;;;;;;11.52;95.11;97247.28;4194587;28;20627;-82
2023/03/31 03:25:11;;;;;;;7.47;3.10;;;;;;;11.56;93.58;97245.25;4197238;28;20633;-82
2023/03/31 03:27:15;;;;;;;6.30;2.47;;;;;;;11.59;93.57;97227.53;4197995;28;20632;-82
2023/03/31 03:29:18;;;;;;;7.70;2.20;;;;;;;11.65;92.39;97218.34;4196767;28;20697;-82
2023/03/31 03:31:22;;;;;;;5.07;2.63;;;;;;;11.68;92.34;97207.63;4190425;28;20654;-82
2023/03/31 03:33:26;;;;;;;4.67;3.00;;;;;;;11.72;91.46;97203.78;4168420;28;20632;-82
2023/03/31 03:35:30;;;;;;;7.43;2.20;;;;;;;11.76;92.97;97188.53;4196362;28;20643;-82
2023/03/31 03:37:34;;;;;;;5.30;2.50;;;;;;;11.78;91.87;97181.38;4194202;28;20631;-82
2023/03/31 03:39:37;;;;;;;6.50;2.33;;;;;;;11.82;91.19;97181.97;4184705;28;20643;-82
2023/03/31 03:41:40;;;;;;;6.13;2.80;;;;;;;11.86;89.89;97176.34;4191958;28;20640;-82
2023/03/31 03:43:43;;;;;;;6.53;2.33;;;;;;;11.90;91.50;97175.09;4193970;28;20625;-82
2023/03/31 03:45:47;;;;;;;4.90;2.40;;;;;;;11.96;90.67;97182.38;4178486;28;22143;-82
2023/03/31 03:47:51;;;;;;;6.73;2.27;;;;;;;11.99;90.98;97182.09;4176909;28;20636;-82
2023/03/31 03:49:54;;;;;;;6.07;2.50;;;;;;;12.04;90.70;97176.47;4194992;28;20635;-82
2023/03/31 03:51:58;;;;;;;8.10;2.40;;;;;;;12.10;89.28;97173.31;4185107;28;20655;-82
2023/03/31 03:54:01;;;;;;;7.33;2.67;;;;;;;12.14;90.14;97164.25;4181795;28;20643;-82
2023/03/31 03:56:05;;;;;;;6.10;2.30;;;;;;;12.17;89.42;97162.19;4175626;28;20635;-82
2023/03/31 03:58:08;;;;;;;4.90;3.30;;;;;;;12.20;88.71;97148.84;4195934;28;20627;-82
2023/03/31 04:00:12;;;;;;;9.63;2.63;;;;;;;12.21;88.72;97141.81;4164364;28;20667;-82
2023/03/31 04:02:17;;;;;;;4.33;2.17;;;;;;;12.21;89.21;97150.50;4193592;28;21321;-82
2023/03/31 04:04:20;;;;;;;5.80;3.03;;;;;;;12.18;90.67;97134.25;4181795;28;21241;-82
2023/03/31 04:06:23;;;;;;;4.70;2.70;;;;;;;12.14;89.99;97138.94;4174681;28;20731;-82
2023/03/31 04:08:28;;;;;;;5.30;3.20;;;;;;;12.14;90.20;97135.50;4195317;28;20782;-82
2023/03/31 04:10:31;;;;;;;5.83;2.47;;;;;;;12.15;89.61;97126.69;4181001;28;20991;-82
2023/03/31 04:12:34;;;;;;;8.97;2.50;;;;;;;12.16;89.11;97112.66;4153400;28;20668;-82
2023/03/31 04:14:37;;;;;;;3.50;2.37;;;;;;;12.17;88.21;97109.91;4196635;28;20661;-82
2023/03/31 04:16:41;;;;;;;6.00;2.70;;;;;;;12.16;89.17;97105.63;4175135;28;21289;-81
2023/03/31 04:18:44;;;;;;;5.50;2.70;;;;;;;12.14;88.50;97102.34;4194240;28;20651;-82
2023/03/31 04:20:53;;;;;;;7.63;3.17;;;;;;;12.14;88.57;97104.97;4174649;28;20723;-82
2023/03/31 04:22:56;;;;;;;5.53;2.80;;;;;;;12.13;86.89;97089.41;4184121;28;20683;-82
2023/03/31 04:25:01;;;;;;;12.30;3.07;;;;;;;12.12;87.85;97079.91;4165592;28;20662;-82
2023/03/31 04:27:06;;;;;;;5.13;2.77;;;;;;;12.13;87.84;97071.94;4184927;28;20730;-82
2023/03/31 04:29:11;;;;;;;4.20;2.40;;;;;;;12.10;87.41;97077.44;4176618;28;20637;-82
2023/03/31 04:31:15;;;;;;;6.17;2.93;;;;;;;12.06;87.35;97076.09;4160674;28;20645;-82
2023/03/31 04:33:19;;;;;;;5.43;3.00;;;;;;;12.06;87.53;97076.09;4167230;28;20684;-82
2023/03/31 04:35:22;;;;;;;4.90;2.87;;;;;;;12.05;88.21;97079.66;4173332;28;20669;-82
2023/03/31 04:37:27;;;;;;;5.13;2.97;;;;;;;12.06;86.85;97070.03;4179881;28;20638;-82
2023/03/31 04:39:33;;;;;;;5.70;2.83;;;;;;;12.05;88.71;97074.41;4198874;28;20673;-82
2023/03/31 04:41:37;;;;;;;5.57;2.80;;;;;;;12.04;88.14;97072.78;4192489;28;20631;-82
2023/03/31 04:43:41;;;;;;;5.50;3.10;;;;;;;12.05;88.42;97057.94;4183226;28;20750;-82
2023/03/31 04:45:44;;;;;;;7.73;4.40;;;;;;;12.05;87.60;97050.09;4189749;28;21166;-82
2023/03/31 04:47:48;;;;;;;4.87;2.83;;;;;;;12.02;87.82;97053.78;4197084;28;24274;-82
2023/03/31 04:49:51;;;;;;;7.20;3.67;;;;;;;12.03;88.66;97052.03;4186186;28;20647;-82
2023/03/31 04:51:54;;;;;;;5.77;3.20;;;;;;;12.00;88.52;97058.34;4168067;28;20660;-82
2023/03/31 04:53:57;;;;;;;5.00;3.60;;;;;;;11.97;89.52;97061.22;4180713;28;20640;-82
2023/03/31 04:56:00;;;;;;;7.93;4.13;;;;;;;11.94;89.00;97051.06;4169357;28;20649;-84
2023/03/31 04:58:04;;;;;;;6.70;3.30;;;;;;;11.86;89.45;97040.47;4183246;28;20635;-84
2023/03/31 05:00:09;;;;;;;6.53;4.13;;;;;;;11.81;89.76;97034.81;4198038;28;20700;-84
2023/03/31 05:02:13;;;;;;;6.60;4.40;;;;;;;11.80;91.17;97032.34;4200304;28;21175;-84
2023/03/31 05:04:17;;;;;;;7.80;4.30;;;;;;;11.75;89.85;97023.28;4173695;28;20656;-83
2023/03/31 05:06:20;;;;;;;6.80;4.43;;;;;;;11.72;91.20;97011.31;4201082;28;20624;-84
2023/03/31 05:08:23;;;;;;;6.90;4.47;;;;;;;11.70;92.80;97009.78;4195811;28;20627;-84
2023/03/31 05:10:26;;;;;;;8.00;4.33;;;;;;;11.67;91.26;97012.72;4176379;28;20624;-84
2023/03/31 05:12:29;;;;;;;6.70;4.47;;;;;;;11.65;91.83;97014.63;4185146;28;20660;-84
2023/03/31 05:14:33;;;;;;;8.63;6.18;;;;;;;11.67;92.81;97023.16;4179603;28;20762;-84
2023/03/31 05:16:36;;;;;;;7.77;5.80;;;;;;;11.65;93.36;97025.06;4176039;28;20210;-84
2023/03/31 05:18:40;;;;;;;9.60;7.37;;;;;;;11.66;92.60;97035.38;4194591;28;20723;-83
2023/03/31 05:20:43;;;;;;;11.07;8.10;;;;;;;11.63;91.50;97024.38;4200602;28;20626;-83
2023/03/31 05:22:47;;;;;;;10.93;7.60;;;;;;;11.63;93.41;97032.22;4202507;28;20624;-84
2023/03/31 05:24:50;;;;;;;12.03;7.53;;;;;;;11.56;92.07;97029.34;4198426;28;20665;-83
2023/03/31 05:26:53;;;;;;;10.60;7.03;;;;;;;11.51;92.09;97025.47;4199988;28;20635;-84
2023/03/31 05:28:56;;;;;;;13.33;8.40;;;;;;;11.49;94.37;97032.63;4194362;28;20639;-84
2023/03/31 05:31:02;;;;;;;10.13;7.93;;;;;;;11.50;93.31;97045.56;4183548;28;20839;-84
2023/03/31 05:33:05;;;;;;;13.50;7.97;;;;;;;11.49;95.11;97053.53;4198852;28;20683;-84
2023/03/31 05:35:08;;;;;;;10.53;9.43;;;;;;;11.43;94.08;97048.81;4166747;28;22152;-84
2023/03/31 05:37:11;;;;;;;11.57;9.60;;;;;;;11.37;95.53;97054.56;4197584;28;20635;-85
2023/03/31 05:39:15;;;;;;;13.20;10.50;;;;;;;11.33;96.01;97053.19;4178337;28;20715;-83
2023/03/31 05:41:18;;;;;;;13.30;9.70;;;;;;;11.30;94.79;97064.69;4195740;28;20650;-83
2023/03/31 05:43:23;;;;;;;11.80;9.43;;;;;;;11.29;95.85;97077.91;4177295;28;21297;-84
2023/03/31 05:45:26;;;;;;;10.97;9.17;;;;;;;11.29;96.52;97077.91;4200248;28;20646;-84
2023/03/31 05:47:31;;;;;;;9.27;7.37;;;;;;;11.31;95.49;97083.81;4202913;28;21468;-84
2023/03/31 05:49:34;;;;;;;9.43;7.03;;;;;;;11.30;95.43;97095.22;4178524;28;22128;-84
2023/03/31 05:51:37;;;;;;;9.20;6.50;;;;;;;11.33;97.90;97080.09;4170267;28;20632;-84
2023/03/31 05:53:40;;;;;;;9.60;7.93;;;;;;;11.35;96.77;97061.69;4183230;28;20663;-84
2023/03/31 05:55:44;;;;;;;8.60;5.60;;;;;;;11.29;96.48;97072.69;4199402;28;21235;-84
2023/03/31 05:57:47;;;;;;;15.40;7.53;;;;;;;11.31;96.40;97065.53;4181741;28;21252;-84
2023/03/31 05:59:50;;;;;;;9.90;7.40;;;;;;;11.20;97.75;97057.00;4178196;28;21952;-83
2023/03/31 06:01:53;;;;;;;14.40;6.40;;;;;;;11.12;98.59;97049.81;4180956;28;20624;-85
2023/03/31 06:03:58;;;;;;;8.60;7.17;;;;;;;11.12;98.71;97039.38;4177628;28;21235;-82
2023/03/31 06:06:01;;;;;;;12.27;7.50;;;;;;;11.13;97.17;97032.41;4198040;28;21074;-83
2023/03/31 06:08:06;;;;;;;10.03;6.23;;;;;;;11.09;98.24;97024.00;4182596;28;21203;-84
2023/03/31 06:10:10;;;;;;;9.23;6.27;;;;;;;11.09;98.67;97031.00;4195429;28;20693;-82
2023/03/31 06:12:13;;;;;;;8.23;5.07;;;;;;;11.12;97.87;97026.34;4198846;28;20717;-85
2023/03/31 06:14:16;;;;;;;8.80;5.27;;;;;;;11.16;98.35;97019.91;4183729;28;21008;-85
2023/03/31 06:16:19;;;;;;;7.90;4.60;;;;;;;11.19;99.63;97011.00;4166683;28;20644;-84
2023/03/31 06:18:23;;;;;;;9.83;5.33;;;;;;;11.19;99.58;97009.19;4181705;28;21072;-85
2023/03/31 06:20:27;;;;;;;10.30;6.13;;;;;;;11.23;98.96;97001.91;4200727;28;20691;-84
2023/03/31 06:22:30;;;;;;;15.83;7.37;;;;;;;11.26;100.00;96984.22;4169227;28;21073;-83
2023/03/31 06:24:33;;;;;;;27.07;15.30;;;;;;;11.27;100.00;96984.09;4202311;28;21265;-83
2023/03/31 06:26:36;;;;;;;18.87;10.00;;;;;;;11.28;99.34;96969.25;4199539;28;20627;-83
2023/03/31 06:28:40;;;;;;;12.50;8.40;;;;;;;11.29;100.00;96973.50;4172730;28;20787;-84
2023/03/31 06:30:43;;;;;;;11.70;7.80;;;;;;;11.29;100.00;96965.69;4182703;28;21102;-83
2023/03/31 06:32:46;;;;;;;13.70;8.60;;;;;;;11.33;100.00;96964.44;4176723;28;21004;-82
2023/03/31 06:34:49;;;;;;;16.23;8.20;;;;;;;11.35;100.00;96960.72;4173555;28;20679;-82
2023/03/31 06:36:53;;;;;;;14.10;7.80;;;;;;;11.37;100.00;96965.81;4173213;28;20637;-84
2023/03/31 06:38:56;;;;;;;14.93;9.40;;;;;;;11.43;100.00;96960.03;4193277;28;20663;-84
2023/03/31 06:40:59;;;;;;;15.30;7.80;;;;;;;11.47;100.00;96961.44;4177759;28;20667;-84
2023/03/31 06:43:03;;;;;;;14.60;6.60;;;;;;;11.50;99.53;96962.00;4186873;28;20737;-84
2023/03/31 06:45:07;;;;;;;7.83;5.77;;;;;;;11.51;100.00;96955.78;4199665;28;21037;-85
2023/03/31 06:47:10;;;;;;;10.20;6.30;;;;;;;11.54;100.00;96952.91;4179977;28;20720;-84
2023/03/31 06:49:13;;;;;;;9.60;6.43;;;;;;;11.57;99.12;96962.25;4200412;28;20624;-82
2023/03/31 06:51:16;;;;;;;9.37;6.60;;;;;;;11.57;99.85;96959.66;4169536;28;21202;-82
2023/03/31 06:53:21;;;;;;;13.37;6.10;;;;;;;11.59;100.00;96971.63;4171816;28;20683;-84
2023/03/31 06:55:24;;;;;;;8.77;6.80;;;;;;;11.63;100.00;96977.38;4195571;28;20635;-84
2023/03/31 06:57:28;;;;;;;13.70;6.33;;;;;;;11.65;99.04;96978.91;4193873;28;21244;-84
2023/03/31 06:59:31;;;;;;;9.30;6.27;;;;;;;11.69;100.00;96976.84;4199084;28;20633;-83
2023/03/31 07:01:36;;;;;;;7.77;6.90;;;;;;;11.71;98.87;96972.28;4180971;28;21211;-82
2023/03/31 07:03:39;;;;;;;10.87;6.40;;;;;;;11.71;99.47;96973.09;4194323;28;20726;-82
2023/03/31 07:05:42;;;;;;;8.97;6.30;;;;;;;11.69;100.00;96984.66;4178229;28;20652;-82
2023/03/31 07:07:45;;;;;;;8.80;6.97;;;;;;;11.68;99.35;96986.47;4195587;28;20638;-82
2023/03/31 07:09:50;;;;;;;10.63;5.57;;;;;;;11.65;99.88;96980.66;4199110;28;20633;-82
2023/03/31 07:11:53;;;;;;;8.27;6.20;;;;;;;11.66;99.48;96990.97;4195873;28;20628;-82
2023/03/31 07:13:58;;;;;;;7.80;6.23;;;;;;;11.68;99.56;96996.06;4183064;28;21000;-82
2023/03/31 07:16:03;;;;;;;8.30;6.13;;;;;;;11.68;100.00;96998.69;4179556;28;21213;-83
2023/03/31 07:18:08;;;;;;;12.30;6.70;;;;;;;11.68;100.00;97011.72;4199041;28;20636;-83
2023/03/31 07:20:13;;;;;;;9.17;6.60;;;;;;;11.65;100.00;97018.06;4180874;28;20679;-83
2023/03/31 07:22:17;;;;;;;10.40;6.27;;;;;;;11.64;100.00;97010.38;4195950;28;20634;-83
2023/03/31 07:24:20;;;;;;;10.20;6.95;;;;;;;11.64;100.00;97020.81;4169974;28;20796;-82
2023/03/31 07:26:24;;;;;;;10.30;6.97;;;;;;;11.63;100.00;97016.56;4177449;28;20305;-83
2023/03/31 07:28:28;;;;;;;10.87;7.43;;;;;;;11.64;100.00;96985.06;4195412;28;20636;-83
2023/03/31 07:30:31;;;;;;;7.37;6.30;;;;;;;11.68;100.00;97001.28;4169170;28;20667;-83
2023/03/31 07:32:38;;;;;;;12.93;6.27;;;;;;;11.69;100.00;96943.69;4170773;28;20633;-82
2023/03/31 07:34:41;;;;;;;12.00;6.57;;;;;;;11.64;100.00;96864.94;4174765;28;20683;-83
2023/03/31 07:36:44;;;;;;;6.67;5.70;;;;;;;11.60;100.00;96931.47;4180504;28;20639;-83
2023/03/31 07:38:48;;;;;;;13.93;7.27;;;;;;;11.58;100.00;96920.34;4196934;28;22599;-83
2023/03/31 07:40:51;;;;;;;10.90;5.93;;;;;;;11.66;100.00;96878.69;4203303;28;20623;-83
2023/03/31 07:43:11;;;;;;;10.60;6.40;;;;;;;11.72;100.00;96904.22;4172840;28;20641;-83
2023/03/31 07:45:16;;;;;;;10.40;5.17;;;;;;;11.77;100.00;96923.75;4180936;28;20682;-83
2023/03/31 07:47:19;;;;;;;5.37;4.80;;;;;;;11.68;100.00;96930.78;4177430;28;20685;-83
2023/03/31 07:49:22;;;;;;;12.17;7.30;;;;;;;11.66;100.00;96943.16;4195046;28;20642;-83
2023/03/31 07:51:26;;;;;;;8.23;5.07;;;;;;;11.65;100.00;96947.56;4178330;28;20636;-82
2023/03/31 07:53:29;;;;;;;6.40;5.17;;;;;;;11.63;100.00;96951.25;4193218;28;20635;-82
2023/03/31 07:55:32;;;;;;;7.73;4.67;;;;;;;11.72;100.00;96953.03;4195924;28;20745;-83
2023/03/31 07:57:36;;;;;;;6.53;4.97;;;;;;;11.88;100.00;96954.13;4176314;28;21044;-82
2023/03/31 07:59:40;;;;;;;5.20;4.60;;;;;;;11.95;100.00;96950.81;4199139;28;20655;-83
2023/03/31 08:01:43;;;;;;;6.93;4.90;;;;;;;12.06;100.00;96942.81;4181766;28;20998;-83
2023/03/31 08:03:47;;;;;;;6.70;4.37;;;;;;;12.22;100.00;96936.97;4193697;28;20676;-83
2023/03/31 08:05:51;;;;;;;6.87;4.10;;;;;;;12.48;100.00;96941.38;4185692;28;20636;-83
2023/03/31 08:07:54;;;;;;;7.80;4.80;;;;;;;12.59;100.00;96934.19;4188920;28;20679;-82
2023/03/31 08:09:57;;;;;;;7.87;3.80;;;;;;;12.56;98.18;96931.06;4194776;28;21299;-83
2023/03/31 08:12:01;;;;;;;10.57;6.97;;;;;;;12.57;97.80;96928.28;4170304;28;20731;-82
2023/03/31 08:14:04;;;;;;;8.87;5.50;;;;;;;12.60;99.33;96924.53;4201635;28;20757;-82
2023/03/31 08:16:09;;;;;;;5.37;3.73;;;;;;;12.39;97.08;96927.41;4198161;28;20642;-83
2023/03/31 08:18:13;;;;;;;3.87;2.50;;;;;;;12.35;97.28;96927.84;4189408;28;21181;-83
2023/03/31 08:20:17;;;;;;;5.30;2.77;;;;;;;12.27;95.47;96928.56;4180316;28;20650;-84
2023/03/31 08:22:22;;;;;;;3.70;3.17;;;;;;;12.28;96.93;96921.53;4186811;28;20682;-83
2023/03/31 08:24:25;;;;;;;2.90;2.27;;;;;;;12.29;94.77;96924.00;4169726;28;21002;-83
2023/03/31 08:26:28;;;;;;;3.83;2.30;;;;;;;12.57;96.39;96928.28;4190641;28;20650;-83
2023/03/31 08:28:31;;;;;;;3.60;2.23;;;;;;;13.01;92.99;96925.72;4197288;28;20670;-83
2023/03/31 08:30:37;;;;;;;4.93;2.27;;;;;;;13.45;94.12;96940.53;4198857;28;20639;-83
2023/03/31 08:32:41;;;;;;;4.40;2.30;;;;;;;13.77;92.62;96937.22;4186901;28;21551;-83
2023/03/31 08:34:45;;;;;;;4.00;2.47;;;;;;;14.14;92.08;96925.53;4201491;28;20659;-83
2023/03/31 08:36:48;;;;;;;3.90;2.10;;;;;;;14.32;90.39;96923.66;4179791;28;21248;-83
2023/03/31 08:38:53;;;;;;;2.80;1.60;;;;;;;14.53;88.75;96929.34;4177635;28;20635;-84
2023/03/31 08:40:59;;;;;;;2.73;1.73;;;;;;;14.68;87.29;96935.66;4196838;28;20640;-83
2023/03/31 08:43:05;;;;;;;2.03;1.53;;;;;;;14.86;84.85;96926.69;4197366;28;21204;-84
2023/03/31 08:45:15;;;;;;;2.47;1.63;;;;;;;14.79;86.14;96927.50;4200117;28;20648;-84
2023/03/31 08:47:21;;;;;;;2.53;2.00;;;;;;;15.01;86.39;96932.16;4201164;28;20635;-84
2023/03/31 08:49:26;;;;;;;2.77;1.77;;;;;;;15.29;85.20;96926.50;4201564;28;20636;-84
2023/03/31 08:51:32;;;;;;;5.67;1.70;;;;;;;15.47;85.53;96925.41;4173189;28;20633;-84
2023/03/31 08:53:38;;;;;;;2.30;1.53;;;;;;;15.56;85.14;96919.97;4184956;28;20625;-84
2023/03/31 08:55:44;;;;;;;2.90;1.70;;;;;;;15.76;83.34;96917.84;4195867;28;20648;-84
2023/03/31 08:57:54;;;;;;;3.00;1.90;;;;;;;16.01;84.05;96916.81;4190606;28;20628;-85
2023/03/31 09:00:04;;;;;;;4.07;1.70;;;;;;;16.01;82.43;96925.53;4185704;28;20730;-84
2023/03/31 09:02:17;;;;;;;3.50;1.80;;;;;;;16.16;83.28;96913.34;4191805;28;20631;-83
2023/03/31 09:04:30;;;;;;;11.90;1.73;;;;;;;16.02;78.90;96900.06;4203267;28;21228;-84
2023/03/31 09:06:38;;;;;;;4.90;1.40;;;;;;;15.91;79.82;96895.97;4184080;28;20637;-84
2023/03/31 09:08:43;;;;;;;6.77;1.73;;;;;;;15.94;82.85;96898.25;4188239;28;20635;-84
2023/03/31 09:10:52;;;;;;;3.23;1.50;;;;;;;16.03;80.96;96898.06;4171152;28;20624;-84
2023/03/31 09:12:58;;;;;;;2.70;1.60;;;;;;;16.06;80.66;96889.03;4194515;28;20621;-84
2023/03/31 09:15:01;;;;;;;6.10;1.80;;;;;;;16.27;80.45;96894.63;4194316;28;20659;-85
2023/03/31 09:17:15;;;;;;;4.60;1.43;;;;;;;16.57;80.42;96894.69;4176957;28;20648;-85
2023/03/31 09:19:21;;;;;;;4.47;1.70;;;;;;;16.83;81.95;96893.41;4181704;28;20654;-85
2023/03/31 09:21:29;;;;;;;3.10;1.70;;;;;;;16.89;79.36;96889.25;4181363;28;20657;-85
2023/03/31 09:23:34;;;;;;;7.17;2.93;;;;;;;16.82;79.15;96885.66;4198210;28;20637;-85
2023/03/31 09:25:40;;;;;;;5.63;2.50;;;;;;;16.68;80.59;96876.66;4164095;28;20651;-85
2023/03/31 09:27:46;;;;;;;4.37;2.07;;;;;;;16.52;79.19;96874.13;4198622;28;20633;-85
2023/03/31 09:29:52;;;;;;;4.53;1.57;;;;;;;16.58;79.90;96869.97;4201275;28;20629;-85
2023/03/31 09:31:55;;;;;;;4.33;1.90;;;;;;;16.59;77.94;96869.00;4191705;28;20637;-85
2023/03/31 09:34:02;;;;;;;7.33;2.13;;;;;;;16.74;77.44;96872.53;4182385;28;21122;-84
2023/03/31 09:36:12;;;;;;;3.70;1.60;;;;;;;16.69;77.31;96859.91;4195735;28;20736;-85
2023/03/31 09:38:17;;;;;;;5.20;1.70;;;;;;;16.50;78.20;96865.56;4185858;28;20713;-84
2023/03/31 09:40:22;;;;;;;5.77;1.97;;;;;;;16.36;75.09;96841.78;4181753;28;21198;-83
2023/03/31 09:42:25;;;;;;;7.70;2.33;;;;;;;16.01;76.16;96838.72;4184596;28;20647;-85
2023/03/31 09:44:37;;;;;;;4.40;1.77;;;;;;;16.26;74.97;96837.72;4186540;28;20627;-85
2023/03/31 09:46:40;;;;;;;6.07;1.57;;;;;;;16.36;75.24;96841.78;4186899;28;20998;-85
2023/03/31 09:48:50;;;;;;;5.87;2.63;;;;;;;16.30;74.41;96853.00;4179466;28;20668;-84